createdAt,value
2023-04-01T00:00:00.244Z,27.11
2023-04-01T00:01:00.282Z,26.46
2023-04-01T00:02:00.378Z,31.69
2023-04-01T00:03:00.469Z,25.94
2023-04-01T00:04:00.562Z,27.10
2023-04-01T00:05:00.501Z,27.26
2023-04-01T00:06:00.576Z,26.95
2023-04-01T00:07:00.638Z,27.67
2023-04-01T00:08:00.701Z,28.52
2023-04-01T00:09:00.763Z,27.78
2023-04-01T00:10:00.856Z,27.37
2023-04-01T00:11:00.880Z,27.33
2023-04-01T00:12:00.948Z,25.80
2023-04-01T00:13:01.044Z,26.44
2023-04-01T00:14:01.078Z,27.79
2023-04-01T00:15:01.137Z,26.90
2023-04-01T00:16:03.140Z,29.61
2023-04-01T00:17:01.304Z,27.07
2023-04-01T00:18:01.349Z,27.71
2023-04-01T00:19:01.334Z,30.41
2023-04-01T00:20:01.419Z,26.58
2023-04-01T00:21:01.508Z,27.13
2023-04-01T00:22:01.556Z,28.33
2023-04-01T00:23:01.571Z,26.77
2023-04-01T00:24:01.626Z,29.79
2023-04-01T00:25:01.725Z,29.82
2023-04-01T00:26:01.804Z,28.84
2023-04-01T00:27:01.853Z,26.59
2023-04-01T00:28:01.899Z,26.94
2023-04-01T00:29:01.972Z,27.78
2023-04-01T00:30:02.053Z,29.35
2023-04-01T00:31:02.110Z,27.97
2023-04-01T00:32:02.248Z,28.33
2023-04-01T00:33:02.241Z,26.41
2023-04-01T00:34:02.272Z,27.57
2023-04-01T00:35:02.302Z,25.00
2023-04-01T00:36:02.416Z,26.81
2023-04-01T00:37:02.445Z,28.63
2023-04-01T00:38:02.485Z,26.27
2023-04-01T00:39:02.535Z,29.28
2023-04-01T00:40:02.620Z,27.91
2023-04-01T00:41:02.673Z,25.21
2023-04-01T00:42:02.754Z,28.53
2023-04-01T00:43:02.784Z,29.73
2023-04-01T00:44:02.841Z,28.84
2023-04-01T00:45:02.884Z,27.58
2023-04-01T00:46:02.981Z,26.58
2023-04-01T00:47:03.108Z,28.91
2023-04-01T00:48:03.123Z,26.15
2023-04-01T00:49:03.138Z,27.42
2023-04-01T00:50:03.249Z,28.20
2023-04-01T00:51:03.264Z,28.62
2023-04-01T00:52:03.301Z,29.20
2023-04-01T00:53:03.360Z,28.76
2023-04-01T00:54:03.417Z,28.82
2023-04-01T00:55:03.513Z,26.71
2023-04-01T00:56:03.535Z,27.47
2023-04-01T00:57:03.685Z,28.40
2023-04-01T00:58:03.680Z,30.23
2023-04-01T00:59:03.752Z,28.04
2023-04-01T01:00:03.815Z,29.96
2023-04-01T01:01:03.913Z,27.55
2023-04-01T01:02:04.001Z,28.05
2023-04-01T01:03:04.064Z,28.65
2023-04-01T01:04:04.052Z,27.64
2023-04-01T01:05:04.152Z,25.62
2023-04-01T01:06:04.157Z,28.36
2023-04-01T01:07:04.216Z,25.59
2023-04-01T01:08:04.253Z,27.41
2023-04-01T01:09:04.328Z,27.19
2023-04-01T01:10:04.390Z,26.32
2023-04-01T01:11:04.443Z,28.44
2023-04-01T01:12:04.507Z,28.63
2023-04-01T01:13:04.553Z,28.20
2023-04-01T01:14:04.635Z,28.67
2023-04-01T01:15:04.679Z,25.75
2023-04-01T01:16:04.766Z,28.83
2023-04-01T01:17:04.788Z,27.91
2023-04-01T01:18:04.894Z,28.95
2023-04-01T01:19:04.942Z,28.77
2023-04-01T01:20:10.056Z,26.70
2023-04-01T01:21:05.957Z,26.97
2023-04-01T01:22:04.941Z,26.98
2023-04-01T01:23:04.960Z,27.00
2023-04-01T01:24:04.959Z,27.63
2023-04-01T01:25:04.978Z,28.54
2023-04-01T01:26:04.938Z,26.38
2023-04-01T01:27:04.923Z,25.85
2023-04-01T01:28:04.929Z,27.65
2023-04-01T01:29:04.989Z,27.12
2023-04-01T01:30:05.000Z,28.11
2023-04-01T01:31:05.108Z,27.84
2023-04-01T01:32:05.112Z,27.93
2023-04-01T01:33:05.206Z,27.84
2023-04-01T01:34:05.262Z,26.12
2023-04-01T01:35:05.316Z,29.31
2023-04-01T01:36:05.398Z,25.43
2023-04-01T01:37:05.441Z,27.35
2023-04-01T01:38:05.437Z,28.28
2023-04-01T01:39:05.519Z,28.92
2023-04-01T01:40:05.615Z,29.27
2023-04-01T01:41:05.638Z,26.23
2023-04-01T01:42:05.716Z,27.14
2023-04-01T01:43:05.765Z,27.83
2023-04-01T01:44:05.803Z,28.36
2023-04-01T01:45:05.873Z,27.65
2023-04-01T01:46:05.953Z,30.13
2023-04-01T01:47:05.970Z,28.33
2023-04-01T01:48:06.066Z,29.49
2023-04-01T01:49:06.088Z,27.43
2023-04-01T01:50:06.157Z,29.45
2023-04-01T01:51:06.213Z,29.11
2023-04-01T01:52:06.262Z,27.55
2023-04-01T01:53:06.343Z,28.10
2023-04-01T01:54:06.421Z,28.20
2023-04-01T01:55:06.451Z,27.91
2023-04-01T01:56:06.549Z,28.91
2023-04-01T01:57:06.611Z,26.86
2023-04-01T01:58:06.652Z,27.24
2023-04-01T01:59:06.689Z,25.93
2023-04-01T02:00:06.795Z,29.03
2023-04-01T02:01:06.804Z,27.41
2023-04-01T02:02:06.870Z,26.82
2023-04-01T02:03:07.009Z,26.55
2023-04-01T02:04:07.037Z,28.27
2023-04-01T02:05:07.055Z,26.79
2023-04-01T02:06:07.124Z,30.71
2023-04-01T02:07:07.173Z,27.38
2023-04-01T02:08:07.241Z,27.02
2023-04-01T02:09:07.300Z,29.12
2023-04-01T02:10:07.400Z,29.20
2023-04-01T02:11:07.405Z,27.60
2023-04-01T02:12:07.473Z,29.23
2023-04-01T02:13:07.532Z,31.68
2023-04-01T02:14:07.587Z,32.14
2023-04-01T02:15:07.657Z,31.65
2023-04-01T02:16:07.702Z,32.27
2023-04-01T02:17:07.759Z,33.36
2023-04-01T02:18:07.853Z,32.55
2023-04-01T02:19:07.866Z,31.92
2023-04-01T02:20:07.931Z,29.43
2023-04-01T02:21:07.963Z,32.05
2023-04-01T02:22:07.997Z,32.23
2023-04-01T02:23:08.081Z,30.29
2023-04-01T02:24:08.140Z,29.76
2023-04-01T02:25:08.193Z,30.20
2023-04-01T02:26:08.266Z,31.81
2023-04-01T02:27:08.306Z,30.75
2023-04-01T02:28:08.438Z,31.29
2023-04-01T02:29:08.451Z,31.91
2023-04-01T02:30:08.526Z,27.85
2023-04-01T02:31:08.615Z,29.31
2023-04-01T02:32:08.635Z,30.43
2023-04-01T02:33:08.728Z,29.25
2023-04-01T02:34:08.721Z,28.76
2023-04-01T02:35:08.810Z,30.04
2023-04-01T02:36:08.957Z,29.07
2023-04-01T02:37:08.949Z,27.44
2023-04-01T02:38:08.980Z,26.20
2023-04-01T02:39:09.032Z,28.21
2023-04-01T02:40:09.083Z,27.23
2023-04-01T02:41:09.141Z,27.56
2023-04-01T02:42:09.243Z,27.46
2023-04-01T02:43:09.288Z,26.55
2023-04-01T02:44:09.340Z,28.68
2023-04-01T02:45:09.391Z,27.87
2023-04-01T02:46:09.466Z,26.09
2023-04-01T02:47:09.495Z,27.01
2023-04-01T02:48:09.500Z,29.83
2023-04-01T02:49:09.548Z,28.00
2023-04-01T02:50:09.594Z,28.73
2023-04-01T02:51:09.636Z,27.05
2023-04-01T02:52:09.666Z,27.17
2023-04-01T02:53:09.738Z,25.89
2023-04-01T02:54:09.788Z,28.60
2023-04-01T02:55:09.875Z,28.71
2023-04-01T02:56:09.901Z,29.17
2023-04-01T02:57:09.969Z,27.15
2023-04-01T02:58:09.977Z,26.96
2023-04-01T02:59:10.063Z,26.40
2023-04-01T03:00:10.110Z,26.51
2023-04-01T03:01:10.204Z,29.12
2023-04-01T03:02:10.239Z,26.90
2023-04-01T03:03:10.288Z,25.00
2023-04-01T03:04:10.316Z,28.28
2023-04-01T03:05:10.388Z,27.06
2023-04-01T03:06:10.442Z,27.25
2023-04-01T03:07:11.270Z,28.41
2023-04-01T03:08:10.540Z,27.13
2023-04-01T03:09:10.599Z,29.14
2023-04-01T03:10:10.648Z,27.44
2023-04-01T03:11:10.692Z,27.01
2023-04-01T03:12:10.784Z,29.18
2023-04-01T03:13:10.840Z,28.16
2023-04-01T03:14:10.837Z,27.61
2023-04-01T03:15:11.691Z,27.64
2023-04-01T03:16:10.976Z,26.11
2023-04-01T03:17:10.987Z,29.12
2023-04-01T03:18:11.071Z,28.04
2023-04-01T03:19:11.104Z,28.36
2023-04-01T03:20:11.194Z,27.52
2023-04-01T03:21:11.233Z,28.93
2023-04-01T03:22:11.331Z,28.20
2023-04-01T03:23:11.367Z,27.76
2023-04-01T03:24:11.412Z,27.74
2023-04-01T03:25:11.469Z,25.84
2023-04-01T03:26:11.525Z,27.48
2023-04-01T03:27:11.565Z,27.92
2023-04-01T03:28:11.652Z,25.19
2023-04-01T03:29:11.687Z,26.46
2023-04-01T03:30:11.846Z,27.20
2023-04-01T03:31:11.926Z,28.28
2023-04-01T03:32:11.877Z,29.02
2023-04-01T03:33:11.953Z,29.63
2023-04-01T03:34:12.015Z,27.11
2023-04-01T03:35:12.056Z,28.32
2023-04-01T03:36:12.129Z,27.34
2023-04-01T03:37:12.169Z,29.11
2023-04-01T03:38:12.193Z,28.61
2023-04-01T03:39:12.222Z,26.62
2023-04-01T03:40:12.284Z,27.29
2023-04-01T03:41:12.336Z,27.51
2023-04-01T03:42:12.357Z,26.10
2023-04-01T03:43:12.439Z,27.08
2023-04-01T03:44:12.480Z,27.32
2023-04-01T03:45:12.489Z,26.56
2023-04-01T03:46:12.580Z,25.87
2023-04-01T03:47:12.559Z,25.19
2023-04-01T03:48:12.676Z,27.35
2023-04-01T03:49:12.832Z,25.00
2023-04-01T03:50:12.749Z,27.39
2023-04-01T03:51:12.816Z,25.79
2023-04-01T03:52:12.821Z,28.21
2023-04-01T03:53:12.895Z,27.60
2023-04-01T03:54:12.951Z,28.31
2023-04-01T03:55:13.036Z,28.62
2023-04-01T03:56:13.112Z,26.07
2023-04-01T03:57:13.130Z,29.63
2023-04-01T03:58:13.104Z,25.52
2023-04-01T03:59:13.204Z,28.01
2023-04-01T04:00:13.216Z,29.39
2023-04-01T04:01:13.273Z,26.36
2023-04-01T04:02:13.381Z,28.66
2023-04-01T04:03:13.509Z,27.88
2023-04-01T04:04:13.387Z,27.98
2023-04-01T04:05:13.455Z,27.75
2023-04-01T04:06:13.506Z,26.39
2023-04-01T04:07:13.527Z,27.85
2023-04-01T04:08:13.556Z,31.20
2023-04-01T04:09:13.658Z,28.77
2023-04-01T04:10:13.690Z,26.84
2023-04-01T04:11:13.745Z,27.09
2023-04-01T04:12:13.762Z,25.27
2023-04-01T04:13:13.795Z,25.89
2023-04-01T04:14:13.882Z,27.82
2023-04-01T04:15:13.910Z,25.24
2023-04-01T04:16:14.067Z,26.79
2023-04-01T04:17:13.999Z,26.07
2023-04-01T04:18:14.038Z,26.69
2023-04-01T04:19:14.054Z,27.88
2023-04-01T04:20:14.096Z,26.96
2023-04-01T04:21:14.161Z,29.74
2023-04-01T04:22:14.194Z,28.87
2023-04-01T04:23:14.250Z,27.69
2023-04-01T04:24:14.271Z,27.46
2023-04-01T04:25:14.323Z,27.61
2023-04-01T04:26:14.378Z,27.87
2023-04-01T04:27:14.442Z,28.84
2023-04-01T04:28:14.507Z,28.77
2023-04-01T04:29:14.550Z,27.33
2023-04-01T04:30:14.589Z,27.14
2023-04-01T04:31:14.666Z,28.49
2023-04-01T04:32:14.673Z,28.11
2023-04-01T04:33:14.658Z,27.33
2023-04-01T04:34:14.698Z,26.17
2023-04-01T04:35:14.764Z,26.30
2023-04-01T04:36:14.811Z,28.26
2023-04-01T04:37:14.800Z,26.96
2023-04-01T04:38:14.809Z,26.00
2023-04-01T04:39:14.877Z,26.80
2023-04-01T04:40:14.909Z,26.36
2023-04-01T04:41:14.972Z,27.55
2023-04-01T04:42:14.987Z,26.00
2023-04-01T04:43:15.022Z,26.52
2023-04-01T04:44:15.047Z,26.83
2023-04-01T04:45:15.104Z,27.20
2023-04-01T04:46:15.116Z,28.68
2023-04-01T04:47:15.162Z,29.11
2023-04-01T04:48:15.152Z,27.66
2023-04-01T04:49:15.198Z,25.00
2023-04-01T04:50:15.173Z,27.24
2023-04-01T04:51:15.173Z,26.91
2023-04-01T04:52:15.196Z,26.46
2023-04-01T04:53:15.196Z,26.00
2023-04-01T04:54:15.216Z,25.21
2023-04-01T04:55:15.260Z,27.43
2023-04-01T04:56:15.259Z,27.58
2023-04-01T04:57:15.240Z,26.74
2023-04-01T04:58:15.281Z,27.52
2023-04-01T04:59:15.256Z,26.15
2023-04-01T05:00:15.295Z,26.80
2023-04-01T05:01:15.359Z,26.25
2023-04-01T05:02:15.330Z,27.82
2023-04-01T05:03:15.387Z,25.68
2023-04-01T05:04:15.311Z,25.01
2023-04-01T05:05:15.349Z,27.95
2023-04-01T05:06:15.315Z,27.85
2023-04-01T05:07:15.305Z,30.04
2023-04-01T05:08:15.324Z,26.68
2023-04-01T05:09:15.378Z,28.70
2023-04-01T05:10:15.368Z,28.06
2023-04-01T05:11:15.421Z,28.85
2023-04-01T05:12:15.407Z,27.65
2023-04-01T05:13:15.483Z,27.42
2023-04-01T05:14:15.455Z,27.69
2023-04-01T05:15:15.507Z,28.62
2023-04-01T05:16:15.558Z,28.15
2023-04-01T05:17:15.526Z,28.07
2023-04-01T05:18:15.557Z,26.48
2023-04-01T05:19:15.525Z,25.91
2023-04-01T05:20:15.553Z,26.35
2023-04-01T05:21:15.585Z,27.64
2023-04-01T05:22:15.641Z,27.53
2023-04-01T05:23:15.660Z,25.68
2023-04-01T05:24:15.675Z,26.80
2023-04-01T05:25:15.717Z,25.03
2023-04-01T05:26:15.752Z,28.24
2023-04-01T05:27:15.769Z,27.24
2023-04-01T05:28:15.802Z,27.30
2023-04-01T05:29:15.854Z,27.91
2023-04-01T05:30:15.884Z,26.53
2023-04-01T05:31:15.920Z,26.38
2023-04-01T05:32:15.937Z,25.49
2023-04-01T05:33:15.933Z,26.61
2023-04-01T05:34:15.964Z,27.82
2023-04-01T05:35:16.105Z,29.04
2023-04-01T05:36:16.132Z,27.38
2023-04-01T05:37:16.112Z,29.27
2023-04-01T05:38:16.106Z,25.80
2023-04-01T05:39:16.113Z,29.28
2023-04-01T05:40:16.169Z,30.22
2023-04-01T05:41:16.159Z,29.84
2023-04-01T05:42:16.198Z,28.94
2023-04-01T05:43:16.149Z,29.67
2023-04-01T05:44:16.187Z,27.09
2023-04-01T05:45:16.196Z,27.14
2023-04-01T05:46:16.290Z,25.92
2023-04-01T05:47:16.232Z,27.24
2023-04-01T05:48:16.238Z,27.32
2023-04-01T05:49:16.256Z,26.89
2023-04-01T05:50:16.285Z,26.51
2023-04-01T05:51:16.267Z,28.89
2023-04-01T05:52:16.273Z,27.23
2023-04-01T05:53:16.272Z,28.50
2023-04-01T05:54:16.277Z,27.39
2023-04-01T05:55:16.319Z,25.87
2023-04-01T05:56:16.338Z,27.95
2023-04-01T05:57:16.415Z,28.25
2023-04-01T05:58:16.334Z,27.96
2023-04-01T05:59:16.360Z,28.62
2023-04-01T06:00:16.325Z,26.90
2023-04-01T06:01:16.719Z,26.33
2023-04-01T06:02:16.397Z,25.49
2023-04-01T06:03:16.463Z,27.64
2023-04-01T06:04:16.454Z,30.27
2023-04-01T06:05:16.440Z,29.86
2023-04-01T06:06:16.424Z,28.19
2023-04-01T06:07:16.411Z,28.09
2023-04-01T06:08:19.003Z,27.59
2023-04-01T06:09:16.422Z,30.91
2023-04-01T06:10:16.410Z,27.58
2023-04-01T06:11:16.407Z,28.94
2023-04-01T06:12:16.401Z,26.90
2023-04-01T06:13:16.415Z,27.50
2023-04-01T06:14:16.393Z,26.82
2023-04-01T06:15:16.386Z,26.79
2023-04-01T06:16:16.481Z,27.38
2023-04-01T06:17:16.329Z,25.07
2023-04-01T06:18:16.389Z,28.84
2023-04-01T06:19:16.345Z,26.87
2023-04-01T06:20:16.328Z,26.70
2023-04-01T06:21:16.319Z,26.16
2023-04-01T06:22:16.324Z,28.61
2023-04-01T06:23:16.331Z,27.60
2023-04-01T06:24:16.284Z,27.81
2023-04-01T06:25:16.297Z,28.88
2023-04-01T06:26:16.281Z,30.04
2023-04-01T06:27:16.283Z,29.40
2023-04-01T06:28:16.285Z,27.11
2023-04-01T06:29:16.269Z,28.24
2023-04-01T06:30:16.250Z,28.44
2023-04-01T06:31:16.330Z,29.08
2023-04-01T06:32:16.368Z,29.18
2023-04-01T06:33:16.286Z,28.64
2023-04-01T06:34:16.251Z,28.07
2023-04-01T06:35:16.228Z,27.42
2023-04-01T06:36:16.253Z,27.55
2023-04-01T06:37:16.216Z,28.80
2023-04-01T06:38:16.196Z,27.90
2023-04-01T06:39:16.186Z,27.24
2023-04-01T06:40:16.201Z,26.90
2023-04-01T06:41:16.171Z,28.29
2023-04-01T06:42:16.833Z,28.25
2023-04-01T06:43:16.164Z,26.84
2023-04-01T06:44:16.153Z,26.84
2023-04-01T06:45:16.161Z,26.75
2023-04-01T06:46:16.136Z,28.91
2023-04-01T06:47:16.133Z,27.35
2023-04-01T06:48:16.141Z,27.33
2023-04-01T06:49:16.124Z,28.64
2023-04-01T06:50:16.134Z,26.96
2023-04-01T06:51:16.111Z,27.08
2023-04-01T06:52:16.101Z,27.05
2023-04-01T06:53:16.232Z,26.67
2023-04-01T06:54:16.096Z,26.62
2023-04-01T06:55:16.109Z,26.46
2023-04-01T06:56:16.108Z,28.52
2023-04-01T06:57:16.110Z,28.66
2023-04-01T06:58:16.049Z,25.00
2023-04-01T06:59:16.055Z,30.37
2023-04-01T07:00:16.135Z,27.70
2023-04-01T07:01:16.189Z,27.36
2023-04-01T07:02:16.229Z,25.98
2023-04-01T07:03:16.272Z,27.78
2023-04-01T07:04:16.408Z,28.55
2023-04-01T07:05:16.400Z,30.23
2023-04-01T07:06:16.457Z,30.98
2023-04-01T07:07:16.525Z,30.75
2023-04-01T07:08:16.549Z,28.02
2023-04-01T07:09:16.634Z,26.41
2023-04-01T07:10:16.679Z,30.88
2023-04-01T07:11:16.761Z,27.31
2023-04-01T07:12:16.786Z,28.47
2023-04-01T07:13:16.843Z,27.79
2023-04-01T07:14:16.917Z,27.72
2023-04-01T07:15:17.039Z,28.18
2023-04-01T07:16:17.174Z,29.21
2023-04-01T07:17:17.065Z,27.56
2023-04-01T07:18:17.143Z,27.00
2023-04-01T07:19:17.190Z,27.29
2023-04-01T07:20:17.278Z,26.29
2023-04-01T07:21:17.319Z,29.99
2023-04-01T07:22:17.399Z,28.09
2023-04-01T07:23:17.437Z,25.52
2023-04-01T07:24:17.552Z,27.81
2023-04-01T07:25:17.577Z,26.19
2023-04-01T07:26:17.613Z,25.00
2023-04-01T07:27:17.645Z,29.20
2023-04-01T07:28:17.867Z,28.99
2023-04-01T07:29:18.037Z,28.96
2023-04-01T07:30:17.873Z,34.33
2023-04-01T07:31:17.933Z,34.93
2023-04-01T07:32:17.975Z,35.22
2023-04-01T07:33:18.082Z,33.40
2023-04-01T07:34:18.077Z,34.99
2023-04-01T07:35:18.170Z,35.95
2023-04-01T07:36:18.221Z,36.74
2023-04-01T07:37:18.261Z,36.35
2023-04-01T07:38:18.302Z,39.16
2023-04-01T07:39:18.364Z,38.45
2023-04-01T07:40:18.425Z,36.59
2023-04-01T07:41:19.237Z,37.66
2023-04-01T07:42:18.522Z,34.63
2023-04-01T07:43:18.612Z,36.50
2023-04-01T07:44:18.665Z,38.55
2023-04-01T07:45:18.703Z,38.51
2023-04-01T07:46:18.808Z,38.41
2023-04-01T07:47:18.811Z,40.06
2023-04-01T07:48:18.822Z,38.93
2023-04-01T07:49:18.881Z,34.89
2023-04-01T07:50:18.923Z,36.98
2023-04-01T07:51:18.996Z,37.18
2023-04-01T07:52:19.051Z,38.51
2023-04-01T07:53:19.091Z,38.66
2023-04-01T07:54:19.090Z,35.75
2023-04-01T07:55:19.196Z,35.64
2023-04-01T07:56:19.199Z,36.03
2023-04-01T07:57:19.286Z,36.66
2023-04-01T07:58:19.311Z,37.14
2023-04-01T07:59:19.360Z,35.39
2023-04-01T08:00:19.417Z,37.14
2023-04-01T08:01:19.437Z,37.08
2023-04-01T08:02:19.584Z,34.84
2023-04-01T08:03:19.603Z,34.80
2023-04-01T08:04:19.670Z,34.06
2023-04-01T08:05:19.602Z,36.02
2023-04-01T08:06:19.636Z,37.20
2023-04-01T08:07:19.678Z,35.03
2023-04-01T08:08:19.709Z,35.06
2023-04-01T08:09:19.773Z,36.23
2023-04-01T08:10:19.810Z,34.07
2023-04-01T08:11:19.848Z,32.68
2023-04-01T08:12:19.914Z,36.39
2023-04-01T08:13:19.936Z,35.92
2023-04-01T08:14:19.937Z,34.53
2023-04-01T08:15:20.004Z,33.42
2023-04-01T08:16:20.118Z,32.54
2023-04-01T08:17:20.057Z,34.64
2023-04-01T08:18:20.133Z,35.10
2023-04-01T08:19:20.162Z,34.74
2023-04-01T08:20:20.221Z,35.20
2023-04-01T08:21:20.249Z,34.84
2023-04-01T08:22:20.289Z,34.71
2023-04-01T08:23:20.343Z,32.73
2023-04-01T08:24:21.527Z,33.35
2023-04-01T08:25:20.402Z,32.03
2023-04-01T08:26:20.483Z,32.58
2023-04-01T08:27:20.491Z,31.84
2023-04-01T08:28:20.534Z,31.24
2023-04-01T08:29:20.586Z,31.32
2023-04-01T08:30:20.622Z,30.45
2023-04-01T08:31:20.654Z,30.19
2023-04-01T08:32:20.667Z,29.78
2023-04-01T08:33:20.731Z,30.20
2023-04-01T08:34:20.742Z,29.42
2023-04-01T08:35:20.776Z,30.10
2023-04-01T08:36:20.825Z,30.04
2023-04-01T08:37:20.842Z,31.51
2023-04-01T08:38:20.894Z,30.93
2023-04-01T08:39:20.907Z,30.73
2023-04-01T08:40:20.963Z,29.83
2023-04-01T08:41:20.990Z,29.63
2023-04-01T08:42:21.000Z,30.47
2023-04-01T08:43:21.036Z,29.69
2023-04-01T08:44:21.060Z,31.28
2023-04-01T08:45:21.139Z,29.78
2023-04-01T08:46:21.173Z,29.02
2023-04-01T08:47:21.199Z,28.57
2023-04-01T08:48:21.219Z,30.98
2023-04-01T08:49:21.230Z,28.31
2023-04-01T08:50:21.349Z,30.26
2023-04-01T08:51:21.462Z,29.30
2023-04-01T08:52:21.339Z,28.64
2023-04-01T08:53:21.417Z,28.79
2023-04-01T08:54:21.417Z,31.42
2023-04-01T08:55:21.494Z,30.86
2023-04-01T08:56:21.489Z,25.99
2023-04-01T08:57:21.544Z,30.05
2023-04-01T08:58:21.523Z,31.12
2023-04-01T08:59:21.602Z,29.46
2023-04-01T09:00:21.633Z,29.22
2023-04-01T09:01:21.651Z,30.44
2023-04-01T09:02:21.767Z,29.88
2023-04-01T09:03:21.722Z,31.67
2023-04-01T09:04:21.737Z,30.67
2023-04-01T09:05:21.730Z,31.28
2023-04-01T09:06:21.756Z,28.96
2023-04-01T09:07:21.766Z,29.73
2023-04-01T09:08:21.798Z,30.78
2023-04-01T09:09:21.829Z,32.98
2023-04-01T09:10:21.872Z,31.34
2023-04-01T09:11:21.870Z,33.34
2023-04-01T09:12:21.908Z,31.52
2023-04-01T09:13:21.931Z,30.32
2023-04-01T09:14:21.928Z,30.72
2023-04-01T09:15:21.967Z,28.90
2023-04-01T09:16:22.051Z,26.71
2023-04-01T09:17:21.991Z,30.22
2023-04-01T09:18:22.019Z,33.59
2023-04-01T09:19:22.012Z,35.75
2023-04-01T09:20:22.009Z,31.97
2023-04-01T09:21:22.042Z,33.93
2023-04-01T09:22:22.066Z,29.26
2023-04-01T09:23:22.082Z,34.97
2023-04-01T09:24:22.085Z,26.61
2023-04-01T09:25:22.098Z,31.28
2023-04-01T09:26:22.087Z,25.10
2023-04-01T09:27:22.136Z,33.62
2023-04-01T09:28:22.110Z,28.53
2023-04-01T09:29:22.117Z,25.00
2023-04-01T09:30:22.121Z,35.19
2023-04-01T09:31:22.170Z,28.67
2023-04-01T09:32:22.182Z,37.95
2023-04-01T09:33:22.178Z,28.87
2023-04-01T09:34:22.177Z,29.66
2023-04-01T09:35:22.199Z,29.61
2023-04-01T09:36:22.155Z,29.23
2023-04-01T09:37:22.212Z,29.63
2023-04-01T09:38:22.161Z,27.81
2023-04-01T09:39:22.189Z,31.18
2023-04-01T09:40:22.203Z,30.29
2023-04-01T09:41:22.209Z,27.67
2023-04-01T09:42:22.191Z,36.91
2023-04-01T09:43:22.193Z,30.81
2023-04-01T09:44:22.218Z,27.27
2023-04-01T09:45:22.432Z,30.99
2023-04-01T09:46:22.272Z,32.47
2023-04-01T09:47:22.269Z,38.86
2023-04-01T09:48:22.279Z,29.88
2023-04-01T09:49:22.304Z,37.04
2023-04-01T09:50:22.370Z,35.56
2023-04-01T09:51:22.377Z,29.67
2023-04-01T09:52:22.439Z,29.49
2023-04-01T09:53:22.485Z,30.68
2023-04-01T09:54:22.556Z,31.01
2023-04-01T09:55:22.635Z,34.47
2023-04-01T09:56:22.705Z,31.46
2023-04-01T09:57:22.803Z,25.60
2023-04-01T09:58:22.756Z,36.80
2023-04-01T09:59:22.838Z,32.95
2023-04-01T10:00:22.927Z,37.54
2023-04-01T10:01:22.968Z,29.57
2023-04-01T10:02:23.062Z,34.47
2023-04-01T10:03:23.092Z,35.26
2023-04-01T10:04:23.130Z,35.75
2023-04-01T10:05:23.227Z,36.20
2023-04-01T10:06:23.252Z,33.56
2023-04-01T10:07:23.306Z,37.86
2023-04-01T10:08:23.380Z,31.94
2023-04-01T10:09:23.388Z,33.11
2023-04-01T10:10:23.481Z,39.01
2023-04-01T10:11:23.551Z,34.04
2023-04-01T10:12:23.585Z,28.55
2023-04-01T10:13:23.665Z,30.26
2023-04-01T10:14:23.709Z,36.08
2023-04-01T10:15:23.816Z,34.84
2023-04-01T10:16:23.950Z,39.75
2023-04-01T10:17:23.930Z,28.58
2023-04-01T10:18:23.944Z,29.46
2023-04-01T10:19:24.022Z,31.45
2023-04-01T10:20:24.108Z,34.99
2023-04-01T10:21:24.163Z,37.34
2023-04-01T10:22:24.208Z,30.71
2023-04-01T10:23:24.282Z,30.92
2023-04-01T10:24:24.309Z,28.32
2023-04-01T10:25:24.406Z,31.10
2023-04-01T10:26:24.440Z,33.12
2023-04-01T10:27:24.484Z,36.45
2023-04-01T10:28:24.582Z,31.46
2023-04-01T10:29:24.639Z,32.49
2023-04-01T10:30:24.687Z,35.41
2023-04-01T10:31:24.728Z,32.81
2023-04-01T10:32:24.820Z,37.60
2023-04-01T10:33:24.871Z,32.69
2023-04-01T10:34:24.897Z,32.96
2023-04-01T10:35:24.981Z,39.70
2023-04-01T10:36:25.047Z,37.03
2023-04-01T10:37:25.116Z,25.21
2023-04-01T10:38:27.539Z,34.47
2023-04-01T10:39:25.160Z,36.43
2023-04-01T10:40:25.128Z,41.77
2023-04-01T10:41:25.137Z,38.49
2023-04-01T10:42:25.151Z,28.76
2023-04-01T10:43:25.137Z,27.53
2023-04-01T10:44:25.114Z,32.44
2023-04-01T10:45:25.098Z,35.28
2023-04-01T10:46:25.135Z,27.62
2023-04-01T10:47:25.137Z,28.52
2023-04-01T10:48:25.062Z,30.86
2023-04-01T10:49:25.069Z,32.70
2023-04-01T10:50:25.073Z,33.80
2023-04-01T10:51:25.058Z,31.78
2023-04-01T10:52:25.058Z,36.73
2023-04-01T10:53:25.018Z,31.59
2023-04-01T10:54:25.050Z,34.28
2023-04-01T10:55:25.040Z,35.48
2023-04-01T10:56:24.992Z,32.02
2023-04-01T10:57:25.067Z,29.27
2023-04-01T10:58:25.042Z,34.26
2023-04-01T10:59:25.030Z,30.42
2023-04-01T11:00:25.012Z,28.66
2023-04-01T11:01:25.060Z,31.04
2023-04-01T11:02:25.029Z,30.95
2023-04-01T11:03:25.053Z,31.38
2023-04-01T11:04:24.983Z,26.44
2023-04-01T11:05:24.945Z,30.89
2023-04-01T11:06:24.945Z,28.31
2023-04-01T11:07:24.944Z,29.52
2023-04-01T11:08:24.944Z,30.26
2023-04-01T11:09:24.961Z,29.16
2023-04-01T11:10:24.955Z,32.13
2023-04-01T11:11:24.882Z,27.32
2023-04-01T11:12:24.900Z,25.77
2023-04-01T11:13:24.899Z,28.29
2023-04-01T11:14:24.899Z,28.23
2023-04-01T11:15:24.885Z,30.77
2023-04-01T11:16:25.039Z,27.45
2023-04-01T11:17:24.871Z,34.06
2023-04-01T11:18:24.913Z,32.32
2023-04-01T11:19:24.854Z,31.24
2023-04-01T11:20:24.845Z,30.62
2023-04-01T11:21:26.717Z,29.54
2023-04-01T11:22:24.902Z,27.87
2023-04-01T11:23:24.963Z,31.41
2023-04-01T11:24:25.023Z,27.03
2023-04-01T11:25:25.056Z,31.54
2023-04-01T11:26:25.067Z,29.90
2023-04-01T11:27:25.196Z,28.66
2023-04-01T11:28:25.200Z,30.12
2023-04-01T11:29:25.213Z,29.79
2023-04-01T11:30:25.270Z,29.67
2023-04-01T11:31:25.331Z,25.00
2023-04-01T11:32:25.340Z,29.01
2023-04-01T11:33:25.988Z,31.88
2023-04-01T11:34:25.410Z,30.83
2023-04-01T11:35:25.441Z,29.96
2023-04-01T11:36:25.473Z,28.96
2023-04-01T11:37:25.507Z,29.54
2023-04-01T11:38:25.560Z,29.92
2023-04-01T11:39:25.578Z,27.32
2023-04-01T11:40:25.627Z,27.05
2023-04-01T11:41:25.643Z,25.88
2023-04-01T11:42:25.713Z,26.05
2023-04-01T11:43:33.016Z,25.00
2023-04-01T11:44:26.737Z,25.36
2023-04-01T11:45:25.747Z,25.62
2023-04-01T11:46:25.749Z,26.07
2023-04-01T11:47:25.726Z,27.07
2023-04-01T11:48:25.658Z,24.58
2023-04-01T11:49:25.667Z,27.20
2023-04-01T11:50:25.679Z,25.52
2023-04-01T11:51:25.638Z,27.85
2023-04-01T11:52:25.649Z,28.11
2023-04-01T11:53:26.427Z,28.24
2023-04-01T11:54:25.680Z,28.35
2023-04-01T11:55:25.669Z,28.66
2023-04-01T11:56:25.663Z,30.07
2023-04-01T11:57:25.693Z,26.16
2023-04-01T11:58:25.625Z,28.99
2023-04-01T11:59:25.697Z,26.97
2023-04-01T12:00:25.705Z,28.61
2023-04-01T12:01:25.741Z,25.66
2023-04-01T12:02:25.783Z,27.56
2023-04-01T12:03:25.819Z,27.32
2023-04-01T12:04:25.822Z,31.41
2023-04-01T12:05:25.820Z,26.64
2023-04-01T12:06:25.823Z,27.68
2023-04-01T12:07:25.856Z,25.00
2023-04-01T12:08:25.914Z,29.72
2023-04-01T12:09:25.929Z,27.85
2023-04-01T12:10:25.937Z,26.58
2023-04-01T12:11:25.985Z,27.66
2023-04-01T12:12:25.976Z,28.97
2023-04-01T12:14:26.033Z,27.66
2023-04-01T12:15:26.058Z,28.98
2023-04-01T12:16:26.099Z,26.27
2023-04-01T12:17:26.108Z,26.90
2023-04-01T12:18:26.127Z,29.53
2023-04-01T12:19:26.167Z,30.16
2023-04-01T12:20:26.203Z,31.95
2023-04-01T12:21:26.247Z,28.54
2023-04-01T12:22:26.241Z,30.03
2023-04-01T12:23:26.281Z,31.52
2023-04-01T12:24:26.287Z,26.59
2023-04-01T12:25:26.315Z,26.24
2023-04-01T12:26:26.352Z,28.97
2023-04-01T12:27:26.329Z,27.50
2023-04-01T12:28:26.359Z,26.40
2023-04-01T12:29:26.444Z,30.47
2023-04-01T12:30:26.421Z,28.68
2023-04-01T12:31:26.478Z,28.23
2023-04-01T12:32:26.624Z,27.30
2023-04-01T12:33:26.491Z,30.64
2023-04-01T12:34:26.535Z,28.71
2023-04-01T12:35:26.615Z,28.14
2023-04-01T12:36:26.607Z,29.74
2023-04-01T12:37:26.614Z,29.93
2023-04-01T12:38:26.649Z,26.45
2023-04-01T12:39:26.656Z,28.71
2023-04-01T12:40:26.678Z,28.64
2023-04-01T12:41:26.700Z,25.68
2023-04-01T12:42:26.766Z,27.50
2023-04-01T12:43:26.776Z,27.54
2023-04-01T12:44:26.805Z,28.03
2023-04-01T12:45:26.837Z,27.26
2023-04-01T12:46:26.938Z,25.38
2023-04-01T12:47:26.869Z,28.33
2023-04-01T12:48:26.900Z,26.32
2023-04-01T12:49:26.928Z,29.36
2023-04-01T12:50:26.969Z,26.28
2023-04-01T12:51:26.991Z,26.33
2023-04-01T12:52:27.059Z,26.33
2023-04-01T12:53:27.090Z,29.82